sensor_id;sensor_type;location;lat;lon;timestamp;P1;durP1;ratioP1;P2;durP2;ratioP2
46675;SDS011;32412;51.478;5.694;2024-03-23T00:55:03;16.17;;;3.97;;
46675;SDS011;32412;51.478;5.694;2024-03-23T00:57:33;13.32;;;4.35;;
46675;SDS011;32412;51.478;5.694;2024-03-23T01:00:04;13.57;;;4.18;;
46675;SDS011;32412;51.478;5.694;2024-03-23T01:02:31;20.33;;;4.78;;
46675;SDS011;32412;51.478;5.694;2024-03-23T01:04:58;21.58;;;4.65;;
46675;SDS011;32412;51.478;5.694;2024-03-23T01:07:23;19.10;;;5.45;;
46675;SDS011;32412;51.478;5.694;2024-03-23T01:09:49;12.30;;;4.72;;
46675;SDS011;32412;51.478;5.694;2024-03-23T01:12:15;19.17;;;5.55;;
46675;SDS011;32412;51.478;5.694;2024-03-23T01:14:41;15.15;;;4.63;;
46675;SDS011;32412;51.478;5.694;2024-03-23T01:17:06;26.85;;;5.97;;
46675;SDS011;32412;51.478;5.694;2024-03-23T01:19:32;18.38;;;4.90;;
46675;SDS011;32412;51.478;5.694;2024-03-23T01:22:01;20.10;;;4.43;;
46675;SDS011;32412;51.478;5.694;2024-03-23T01:24:26;16.08;;;4.63;;
46675;SDS011;32412;51.478;5.694;2024-03-23T01:26:52;12.93;;;4.72;;
46675;SDS011;32412;51.478;5.694;2024-03-23T01:29:20;15.55;;;3.55;;
46675;SDS011;32412;51.478;5.694;2024-03-23T01:31:46;9.55;;;3.38;;
46675;SDS011;32412;51.478;5.694;2024-03-23T01:34:16;20.13;;;4.32;;
46675;SDS011;32412;51.478;5.694;2024-03-23T01:36:45;13.63;;;3.58;;
46675;SDS011;32412;51.478;5.694;2024-03-23T01:39:12;18.65;;;4.75;;
46675;SDS011;32412;51.478;5.694;2024-03-23T01:41:39;13.07;;;4.13;;
46675;SDS011;32412;51.478;5.694;2024-03-23T01:44:08;12.55;;;4.32;;
46675;SDS011;32412;51.478;5.694;2024-03-23T01:46:43;21.60;;;4.43;;
46675;SDS011;32412;51.478;5.694;2024-03-23T01:49:12;18.80;;;4.50;;
46675;SDS011;32412;51.478;5.694;2024-03-23T01:51:41;15.40;;;3.92;;
46675;SDS011;32412;51.478;5.694;2024-03-23T01:54:12;12.98;;;4.13;;
46675;SDS011;32412;51.478;5.694;2024-03-23T01:56:39;15.50;;;4.57;;
46675;SDS011;32412;51.478;5.694;2024-03-23T01:59:07;18.60;;;4.45;;
46675;SDS011;32412;51.478;5.694;2024-03-23T02:01:35;21.70;;;4.30;;
46675;SDS011;32412;51.478;5.694;2024-03-23T02:04:06;18.95;;;4.30;;
46675;SDS011;32412;51.478;5.694;2024-03-23T02:06:40;18.08;;;4.45;;
46675;SDS011;32412;51.478;5.694;2024-03-23T02:09:08;14.27;;;4.80;;
46675;SDS011;32412;51.478;5.694;2024-03-23T02:11:38;22.95;;;4.65;;
46675;SDS011;32412;51.478;5.694;2024-03-23T02:14:06;17.70;;;4.82;;
46675;SDS011;32412;51.478;5.694;2024-03-23T02:16:32;19.50;;;4.43;;
46675;SDS011;32412;51.478;5.694;2024-03-23T02:18:58;19.23;;;4.07;;
46675;SDS011;32412;51.478;5.694;2024-03-23T02:21:26;20.42;;;5.10;;
46675;SDS011;32412;51.478;5.694;2024-03-23T02:23:52;19.83;;;4.35;;
46675;SDS011;32412;51.478;5.694;2024-03-23T02:26:18;16.52;;;4.50;;
46675;SDS011;32412;51.478;5.694;2024-03-23T02:28:44;19.02;;;4.65;;
46675;SDS011;32412;51.478;5.694;2024-03-23T02:31:09;19.80;;;4.65;;
46675;SDS011;32412;51.478;5.694;2024-03-23T02:33:35;16.83;;;4.32;;
46675;SDS011;32412;51.478;5.694;2024-03-23T02:36:03;14.98;;;5.22;;
46675;SDS011;32412;51.478;5.694;2024-03-23T02:38:29;18.38;;;3.80;;
46675;SDS011;32412;51.478;5.694;2024-03-23T02:40:55;16.75;;;4.18;;
46675;SDS011;32412;51.478;5.694;2024-03-23T02:43:26;16.95;;;4.32;;
46675;SDS011;32412;51.478;5.694;2024-03-23T02:45:51;13.00;;;4.30;;
46675;SDS011;32412;51.478;5.694;2024-03-23T02:48:17;18.92;;;6.07;;
46675;SDS011;32412;51.478;5.694;2024-03-23T02:50:43;19.95;;;5.20;;
46675;SDS011;32412;51.478;5.694;2024-03-23T02:53:08;13.50;;;4.93;;
46675;SDS011;32412;51.478;5.694;2024-03-23T02:55:34;23.90;;;5.40;;
46675;SDS011;32412;51.478;5.694;2024-03-23T02:58:00;12.75;;;5.13;;
46675;SDS011;32412;51.478;5.694;2024-03-23T03:00:29;14.05;;;5.00;;
46675;SDS011;32412;51.478;5.694;2024-03-23T03:02:57;19.70;;;5.90;;
46675;SDS011;32412;51.478;5.694;2024-03-23T03:05:23;11.85;;;4.95;;
46675;SDS011;32412;51.478;5.694;2024-03-23T03:07:51;17.15;;;5.85;;
46675;SDS011;32412;51.478;5.694;2024-03-23T03:10:17;20.42;;;5.93;;
46675;SDS011;32412;51.478;5.694;2024-03-23T03:12:42;17.05;;;5.40;;
46675;SDS011;32412;51.478;5.694;2024-03-23T03:15:08;22.15;;;5.68;;
46675;SDS011;32412;51.478;5.694;2024-03-23T03:17:34;15.20;;;4.85;;
46675;SDS011;32412;51.478;5.694;2024-03-23T03:20:00;17.38;;;5.10;;
46675;SDS011;32412;51.478;5.694;2024-03-23T03:22:25;21.35;;;5.57;;
46675;SDS011;32412;51.478;5.694;2024-03-23T03:24:51;14.93;;;4.85;;
46675;SDS011;32412;51.478;5.694;2024-03-23T03:27:17;16.10;;;5.15;;
46675;SDS011;32412;51.478;5.694;2024-03-23T03:29:42;24.33;;;5.88;;
46675;SDS011;32412;51.478;5.694;2024-03-23T03:32:08;18.35;;;5.65;;
46675;SDS011;32412;51.478;5.694;2024-03-23T03:34:34;15.25;;;4.80;;
46675;SDS011;32412;51.478;5.694;2024-03-23T03:36:59;15.77;;;4.80;;
46675;SDS011;32412;51.478;5.694;2024-03-23T03:39:25;17.33;;;4.32;;
46675;SDS011;32412;51.478;5.694;2024-03-23T03:41:51;15.05;;;4.85;;
46675;SDS011;32412;51.478;5.694;2024-03-23T03:44:17;13.32;;;4.32;;
46675;SDS011;32412;51.478;5.694;2024-03-23T03:46:43;16.25;;;4.32;;
46675;SDS011;32412;51.478;5.694;2024-03-23T03:49:08;16.80;;;5.05;;
46675;SDS011;32412;51.478;5.694;2024-03-23T03:51:34;14.23;;;4.45;;
46675;SDS011;32412;51.478;5.694;2024-03-23T03:54:00;11.82;;;4.95;;
46675;SDS011;32412;51.478;5.694;2024-03-23T03:56:26;15.65;;;4.68;;
46675;SDS011;32412;51.478;5.694;2024-03-23T03:58:52;19.00;;;4.45;;
46675;SDS011;32412;51.478;5.694;2024-03-23T04:01:18;13.82;;;4.10;;
46675;SDS011;32412;51.478;5.694;2024-03-23T04:03:44;12.65;;;3.80;;
46675;SDS011;32412;51.478;5.694;2024-03-23T04:06:10;14.68;;;4.07;;
46675;SDS011;32412;51.478;5.694;2024-03-23T04:08:36;13.93;;;4.03;;
46675;SDS011;32412;51.478;5.694;2024-03-23T04:11:04;15.80;;;3.78;;
46675;SDS011;32412;51.478;5.694;2024-03-23T04:13:29;14.52;;;3.80;;
46675;SDS011;32412;51.478;5.694;2024-03-23T04:15:55;14.82;;;3.97;;
46675;SDS011;32412;51.478;5.694;2024-03-23T04:18:21;13.02;;;4.13;;
46675;SDS011;32412;51.478;5.694;2024-03-23T04:20:48;11.52;;;3.88;;
46675;SDS011;32412;51.478;5.694;2024-03-23T04:23:13;16.33;;;3.63;;
46675;SDS011;32412;51.478;5.694;2024-03-23T04:25:39;18.23;;;4.68;;
46675;SDS011;32412;51.478;5.694;2024-03-23T04:28:05;13.32;;;3.53;;
46675;SDS011;32412;51.478;5.694;2024-03-23T04:30:31;16.52;;;4.55;;
46675;SDS011;32412;51.478;5.694;2024-03-23T04:32:57;16.67;;;3.83;;
46675;SDS011;32412;51.478;5.694;2024-03-23T04:35:23;16.88;;;4.38;;
46675;SDS011;32412;51.478;5.694;2024-03-23T04:37:55;18.17;;;4.15;;
46675;SDS011;32412;51.478;5.694;2024-03-23T04:40:23;13.27;;;3.95;;
46675;SDS011;32412;51.478;5.694;2024-03-23T04:42:49;17.63;;;4.18;;
46675;SDS011;32412;51.478;5.694;2024-03-23T04:45:15;11.13;;;4.30;;
46675;SDS011;32412;51.478;5.694;2024-03-23T04:47:40;13.32;;;4.35;;
46675;SDS011;32412;51.478;5.694;2024-03-23T04:50:06;15.15;;;4.10;;
46675;SDS011;32412;51.478;5.694;2024-03-23T04:52:32;11.73;;;4.43;;
46675;SDS011;32412;51.478;5.694;2024-03-23T04:54:58;10.00;;;4.38;;
46675;SDS011;32412;51.478;5.694;2024-03-23T04:57:23;14.18;;;4.20;;
46675;SDS011;32412;51.478;5.694;2024-03-23T04:59:49;14.30;;;4.65;;
46675;SDS011;32412;51.478;5.694;2024-03-23T05:02:15;20.40;;;5.53;;
46675;SDS011;32412;51.478;5.694;2024-03-23T05:04:41;17.60;;;5.55;;
46675;SDS011;32412;51.478;5.694;2024-03-23T05:07:07;20.13;;;6.80;;
46675;SDS011;32412;51.478;5.694;2024-03-23T05:09:33;18.88;;;6.47;;
46675;SDS011;32412;51.478;5.694;2024-03-23T05:12:01;22.08;;;7.00;;
46675;SDS011;32412;51.478;5.694;2024-03-23T05:14:27;19.10;;;6.93;;
46675;SDS011;32412;51.478;5.694;2024-03-23T05:16:53;21.70;;;7.40;;
46675;SDS011;32412;51.478;5.694;2024-03-23T05:19:19;20.90;;;7.30;;
46675;SDS011;32412;51.478;5.694;2024-03-23T05:21:45;21.75;;;7.93;;
46675;SDS011;32412;51.478;5.694;2024-03-23T05:24:13;23.98;;;8.40;;
46675;SDS011;32412;51.478;5.694;2024-03-23T05:26:38;28.50;;;9.65;;
46675;SDS011;32412;51.478;5.694;2024-03-23T05:29:04;27.08;;;8.75;;
46675;SDS011;32412;51.478;5.694;2024-03-23T05:31:32;23.30;;;9.48;;
46675;SDS011;32412;51.478;5.694;2024-03-23T05:33:57;24.33;;;9.57;;
46675;SDS011;32412;51.478;5.694;2024-03-23T05:36:23;31.70;;;10.82;;
46675;SDS011;32412;51.478;5.694;2024-03-23T05:38:49;26.02;;;10.35;;
46675;SDS011;32412;51.478;5.694;2024-03-23T05:41:17;30.50;;;9.80;;
46675;SDS011;32412;51.478;5.694;2024-03-23T05:43:43;28.70;;;9.82;;
46675;SDS011;32412;51.478;5.694;2024-03-23T05:46:12;31.90;;;11.00;;
46675;SDS011;32412;51.478;5.694;2024-03-23T05:48:37;32.95;;;11.15;;
46675;SDS011;32412;51.478;5.694;2024-03-23T05:51:03;35.17;;;10.43;;
46675;SDS011;32412;51.478;5.694;2024-03-23T05:53:29;38.33;;;11.38;;
46675;SDS011;32412;51.478;5.694;2024-03-23T05:56:02;37.53;;;11.57;;
46675;SDS011;32412;51.478;5.694;2024-03-23T05:58:31;30.65;;;10.63;;
46675;SDS011;32412;51.478;5.694;2024-03-23T06:00:58;37.67;;;11.45;;
46675;SDS011;32412;51.478;5.694;2024-03-23T06:03:26;25.23;;;9.88;;
46675;SDS011;32412;51.478;5.694;2024-03-23T06:05:52;33.13;;;10.90;;
46675;SDS011;32412;51.478;5.694;2024-03-23T06:08:18;31.98;;;10.75;;
46675;SDS011;32412;51.478;5.694;2024-03-23T06:10:44;28.83;;;10.40;;
46675;SDS011;32412;51.478;5.694;2024-03-23T06:13:11;32.30;;;9.88;;
46675;SDS011;32412;51.478;5.694;2024-03-23T06:15:37;33.85;;;10.15;;
46675;SDS011;32412;51.478;5.694;2024-03-23T06:18:03;36.75;;;9.68;;
46675;SDS011;32412;51.478;5.694;2024-03-23T06:20:29;29.70;;;8.77;;
46675;SDS011;32412;51.478;5.694;2024-03-23T06:22:58;29.33;;;8.77;;
46675;SDS011;32412;51.478;5.694;2024-03-23T06:25:24;23.35;;;8.45;;
46675;SDS011;32412;51.478;5.694;2024-03-23T06:27:50;32.85;;;8.65;;
46675;SDS011;32412;51.478;5.694;2024-03-23T06:30:15;21.35;;;8.23;;
46675;SDS011;32412;51.478;5.694;2024-03-23T06:32:41;23.20;;;7.32;;
46675;SDS011;32412;51.478;5.694;2024-03-23T06:35:07;25.58;;;8.23;;
46675;SDS011;32412;51.478;5.694;2024-03-23T06:37:35;23.02;;;7.30;;
46675;SDS011;32412;51.478;5.694;2024-03-23T06:40:01;26.73;;;7.53;;
46675;SDS011;32412;51.478;5.694;2024-03-23T06:42:27;25.33;;;7.93;;
46675;SDS011;32412;51.478;5.694;2024-03-23T06:44:53;23.17;;;8.30;;
46675;SDS011;32412;51.478;5.694;2024-03-23T06:47:18;22.27;;;7.05;;
46675;SDS011;32412;51.478;5.694;2024-03-23T06:49:44;22.02;;;6.35;;
46675;SDS011;32412;51.478;5.694;2024-03-23T06:52:10;16.90;;;5.30;;
46675;SDS011;32412;51.478;5.694;2024-03-23T06:54:35;12.07;;;4.30;;
46675;SDS011;32412;51.478;5.694;2024-03-23T06:57:01;12.82;;;3.63;;
46675;SDS011;32412;51.478;5.694;2024-03-23T06:59:26;17.38;;;4.07;;
46675;SDS011;32412;51.478;5.694;2024-03-23T07:01:52;13.25;;;3.72;;
46675;SDS011;32412;51.478;5.694;2024-03-23T07:04:18;14.45;;;3.92;;
46675;SDS011;32412;51.478;5.694;2024-03-23T07:06:44;10.02;;;3.38;;
46675;SDS011;32412;51.478;5.694;2024-03-23T07:09:10;14.57;;;4.40;;
46675;SDS011;32412;51.478;5.694;2024-03-23T07:11:36;14.57;;;4.20;;
46675;SDS011;32412;51.478;5.694;2024-03-23T07:14:01;14.35;;;4.80;;
46675;SDS011;32412;51.478;5.694;2024-03-23T07:20:02;17.95;;;4.50;;
46675;SDS011;32412;51.478;5.694;2024-03-23T07:22:32;15.45;;;4.20;;
46675;SDS011;32412;51.478;5.694;2024-03-23T07:25:00;12.20;;;3.38;;
46675;SDS011;32412;51.478;5.694;2024-03-23T07:27:30;11.60;;;3.50;;
46675;SDS011;32412;51.478;5.694;2024-03-23T07:29:56;13.13;;;4.25;;
46675;SDS011;32412;51.478;5.694;2024-03-23T07:32:21;17.33;;;4.50;;
46675;SDS011;32412;51.478;5.694;2024-03-23T07:34:47;18.85;;;4.50;;
46675;SDS011;32412;51.478;5.694;2024-03-23T07:37:13;17.58;;;4.82;;
46675;SDS011;32412;51.478;5.694;2024-03-23T07:39:39;13.60;;;4.20;;
46675;SDS011;32412;51.478;5.694;2024-03-23T07:42:05;17.23;;;3.95;;
46675;SDS011;32412;51.478;5.694;2024-03-23T07:44:31;16.65;;;4.47;;
46675;SDS011;32412;51.478;5.694;2024-03-23T07:47:03;11.15;;;3.00;;
46675;SDS011;32412;51.478;5.694;2024-03-23T07:49:56;11.77;;;2.90;;
46675;SDS011;32412;51.478;5.694;2024-03-23T07:52:21;15.27;;;3.95;;
46675;SDS011;32412;51.478;5.694;2024-03-23T07:54:47;14.30;;;4.30;;
46675;SDS011;32412;51.478;5.694;2024-03-23T07:57:12;20.70;;;4.47;;
46675;SDS011;32412;51.478;5.694;2024-03-23T07:59:38;15.43;;;4.63;;
46675;SDS011;32412;51.478;5.694;2024-03-23T08:02:11;14.18;;;4.63;;
46675;SDS011;32412;51.478;5.694;2024-03-23T08:08:05;18.50;;;4.95;;
46675;SDS011;32412;51.478;5.694;2024-03-23T08:10:33;12.32;;;3.83;;
46675;SDS011;32412;51.478;5.694;2024-03-23T08:12:59;15.60;;;3.85;;
46675;SDS011;32412;51.478;5.694;2024-03-23T08:15:25;15.93;;;4.00;;
46675;SDS011;32412;51.478;5.694;2024-03-23T08:17:50;18.33;;;4.00;;
46675;SDS011;32412;51.478;5.694;2024-03-23T08:20:16;15.70;;;3.50;;
46675;SDS011;32412;51.478;5.694;2024-03-23T08:22:42;12.43;;;2.90;;
46675;SDS011;32412;51.478;5.694;2024-03-23T08:25:07;16.02;;;3.20;;
46675;SDS011;32412;51.478;5.694;2024-03-23T08:27:33;18.83;;;3.60;;
46675;SDS011;32412;51.478;5.694;2024-03-23T08:29:59;10.57;;;2.63;;
46675;SDS011;32412;51.478;5.694;2024-03-23T08:32:24;14.95;;;3.08;;
46675;SDS011;32412;51.478;5.694;2024-03-23T08:34:50;12.73;;;2.55;;
46675;SDS011;32412;51.478;5.694;2024-03-23T08:37:15;9.38;;;2.40;;
46675;SDS011;32412;51.478;5.694;2024-03-23T08:39:44;9.75;;;2.60;;
46675;SDS011;32412;51.478;5.694;2024-03-23T08:42:10;11.25;;;2.45;;
46675;SDS011;32412;51.478;5.694;2024-03-23T08:44:35;11.63;;;2.30;;
46675;SDS011;32412;51.478;5.694;2024-03-23T08:47:01;10.57;;;2.60;;
46675;SDS011;32412;51.478;5.694;2024-03-23T08:49:27;9.35;;;1.95;;
46675;SDS011;32412;51.478;5.694;2024-03-23T08:51:53;11.27;;;2.20;;
46675;SDS011;32412;51.478;5.694;2024-03-23T08:54:19;14.27;;;2.20;;
46675;SDS011;32412;51.478;5.694;2024-03-23T08:56:47;7.93;;;1.90;;
46675;SDS011;32412;51.478;5.694;2024-03-23T08:59:12;13.07;;;2.25;;
46675;SDS011;32412;51.478;5.694;2024-03-23T09:01:38;12.50;;;2.05;;
46675;SDS011;32412;51.478;5.694;2024-03-23T09:04:04;10.07;;;2.10;;
46675;SDS011;32412;51.478;5.694;2024-03-23T09:06:29;8.35;;;1.70;;
46675;SDS011;32412;51.478;5.694;2024-03-23T09:08:55;8.10;;;2.08;;
46675;SDS011;32412;51.478;5.694;2024-03-23T09:11:20;8.70;;;1.50;;
46675;SDS011;32412;51.478;5.694;2024-03-23T09:13:46;4.63;;;1.50;;
46675;SDS011;32412;51.478;5.694;2024-03-23T09:16:12;11.13;;;2.03;;
46675;SDS011;32412;51.478;5.694;2024-03-23T09:18:38;9.40;;;1.40;;
46675;SDS011;32412;51.478;5.694;2024-03-23T09:21:04;9.20;;;1.33;;
46675;SDS011;32412;51.478;5.694;2024-03-23T09:23:38;5.85;;;0.77;;
46675;SDS011;32412;51.478;5.694;2024-03-23T09:26:03;3.35;;;0.90;;
46675;SDS011;32412;51.478;5.694;2024-03-23T09:28:29;5.03;;;0.95;;
46675;SDS011;32412;51.478;5.694;2024-03-23T09:30:55;6.32;;;0.80;;
46675;SDS011;32412;51.478;5.694;2024-03-23T09:33:30;5.15;;;0.93;;
46675;SDS011;32412;51.478;5.694;2024-03-23T09:35:56;4.40;;;0.88;;
46675;SDS011;32412;51.478;5.694;2024-03-23T09:38:25;5.60;;;1.20;;
46675;SDS011;32412;51.478;5.694;2024-03-23T09:40:52;7.68;;;1.08;;
46675;SDS011;32412;51.478;5.694;2024-03-23T09:43:18;3.83;;;0.88;;
46675;SDS011;32412;51.478;5.694;2024-03-23T09:45:44;9.73;;;1.55;;
46675;SDS011;32412;51.478;5.694;2024-03-23T09:48:11;4.60;;;1.00;;
46675;SDS011;32412;51.478;5.694;2024-03-23T09:50:38;3.22;;;1.10;;
46675;SDS011;32412;51.478;5.694;2024-03-23T09:53:04;3.38;;;0.80;;
46675;SDS011;32412;51.478;5.694;2024-03-23T09:55:35;5.88;;;1.05;;
46675;SDS011;32412;51.478;5.694;2024-03-23T09:58:01;6.10;;;1.00;;
46675;SDS011;32412;51.478;5.694;2024-03-23T10:00:27;6.72;;;1.20;;
46675;SDS011;32412;51.478;5.694;2024-03-23T10:02:56;4.32;;;1.02;;
46675;SDS011;32412;51.478;5.694;2024-03-23T10:05:26;9.05;;;1.20;;
46675;SDS011;32412;51.478;5.694;2024-03-23T10:07:52;6.70;;;1.15;;
46675;SDS011;32412;51.478;5.694;2024-03-23T10:10:18;6.15;;;1.58;;
46675;SDS011;32412;51.478;5.694;2024-03-23T10:12:49;8.40;;;1.50;;
46675;SDS011;32412;51.478;5.694;2024-03-23T10:15:27;8.73;;;1.23;;
46675;SDS011;32412;51.478;5.694;2024-03-23T10:17:52;8.27;;;1.17;;
46675;SDS011;32412;51.478;5.694;2024-03-23T10:20:19;8.30;;;1.50;;
46675;SDS011;32412;51.478;5.694;2024-03-23T10:22:56;6.93;;;1.58;;
46675;SDS011;32412;51.478;5.694;2024-03-23T10:25:40;8.80;;;1.33;;
46675;SDS011;32412;51.478;5.694;2024-03-23T10:28:06;6.88;;;1.13;;
46675;SDS011;32412;51.478;5.694;2024-03-23T10:30:31;2.55;;;0.60;;
46675;SDS011;32412;51.478;5.694;2024-03-23T10:33:10;1.90;;;0.57;;
46675;SDS011;32412;51.478;5.694;2024-03-23T10:35:39;3.17;;;0.60;;
46675;SDS011;32412;51.478;5.694;2024-03-23T10:38:05;7.35;;;0.85;;
46675;SDS011;32412;51.478;5.694;2024-03-23T10:40:34;1.95;;;0.63;;
46675;SDS011;32412;51.478;5.694;2024-03-23T10:43:00;5.22;;;0.98;;
46675;SDS011;32412;51.478;5.694;2024-03-23T10:45:27;3.50;;;0.95;;
46675;SDS011;32412;51.478;5.694;2024-03-23T10:47:53;4.50;;;1.35;;
46675;SDS011;32412;51.478;5.694;2024-03-23T10:50:19;4.85;;;1.02;;
46675;SDS011;32412;51.478;5.694;2024-03-23T10:52:46;6.55;;;1.63;;
46675;SDS011;32412;51.478;5.694;2024-03-23T10:55:18;5.53;;;0.90;;
46675;SDS011;32412;51.478;5.694;2024-03-23T10:57:55;4.30;;;1.10;;
46675;SDS011;32412;51.478;5.694;2024-03-23T11:00:23;4.55;;;1.17;;
46675;SDS011;32412;51.478;5.694;2024-03-23T11:02:49;4.20;;;1.30;;
46675;SDS011;32412;51.478;5.694;2024-03-23T11:07:53;6.90;;;1.20;;
46675;SDS011;32412;51.478;5.694;2024-03-23T11:10:31;7.32;;;1.60;;
46675;SDS011;32412;51.478;5.694;2024-03-23T11:15:47;3.53;;;1.10;;
46675;SDS011;32412;51.478;5.694;2024-03-23T11:18:12;3.58;;;1.08;;
46675;SDS011;32412;51.478;5.694;2024-03-23T11:20:46;7.53;;;1.40;;
46675;SDS011;32412;51.478;5.694;2024-03-23T11:23:26;8.30;;;1.20;;
46675;SDS011;32412;51.478;5.694;2024-03-23T11:25:53;2.78;;;1.35;;
46675;SDS011;32412;51.478;5.694;2024-03-23T11:28:18;6.28;;;1.60;;
46675;SDS011;32412;51.478;5.694;2024-03-23T11:30:44;5.80;;;1.52;;
46675;SDS011;32412;51.478;5.694;2024-03-23T11:33:09;10.00;;;1.52;;
46675;SDS011;32412;51.478;5.694;2024-03-23T11:38:14;4.18;;;1.20;;
46675;SDS011;32412;51.478;5.694;2024-03-23T11:40:47;9.30;;;1.83;;
46675;SDS011;32412;51.478;5.694;2024-03-23T11:43:17;9.77;;;1.50;;
46675;SDS011;32412;51.478;5.694;2024-03-23T11:48:20;6.63;;;1.17;;
46675;SDS011;32412;51.478;5.694;2024-03-23T11:50:47;4.03;;;1.10;;
46675;SDS011;32412;51.478;5.694;2024-03-23T11:53:16;3.35;;;0.70;;
46675;SDS011;32412;51.478;5.694;2024-03-23T11:55:45;2.33;;;0.70;;
46675;SDS011;32412;51.478;5.694;2024-03-23T11:58:19;3.67;;;0.82;;
46675;SDS011;32412;51.478;5.694;2024-03-23T12:00:59;3.20;;;0.75;;
46675;SDS011;32412;51.478;5.694;2024-03-23T12:03:30;5.75;;;0.65;;
46675;SDS011;32412;51.478;5.694;2024-03-23T12:09:20;4.13;;;0.73;;
46675;SDS011;32412;51.478;5.694;2024-03-23T12:11:46;5.30;;;0.77;;
46675;SDS011;32412;51.478;5.694;2024-03-23T12:14:14;4.15;;;0.50;;
46675;SDS011;32412;51.478;5.694;2024-03-23T12:16:40;4.82;;;0.73;;
46675;SDS011;32412;51.478;5.694;2024-03-23T12:19:06;4.28;;;0.77;;
46675;SDS011;32412;51.478;5.694;2024-03-23T12:21:32;4.15;;;0.70;;
46675;SDS011;32412;51.478;5.694;2024-03-23T12:23:57;3.13;;;0.70;;
46675;SDS011;32412;51.478;5.694;2024-03-23T12:26:23;1.02;;;0.50;;
46675;SDS011;32412;51.478;5.694;2024-03-23T12:28:49;4.30;;;0.68;;
46675;SDS011;32412;51.478;5.694;2024-03-23T12:31:14;6.55;;;0.63;;
46675;SDS011;32412;51.478;5.694;2024-03-23T12:33:40;4.15;;;0.63;;
46675;SDS011;32412;51.478;5.694;2024-03-23T12:36:06;2.53;;;0.68;;
46675;SDS011;32412;51.478;5.694;2024-03-23T12:38:31;0.88;;;0.43;;
46675;SDS011;32412;51.478;5.694;2024-03-23T12:40:57;4.22;;;0.55;;
46675;SDS011;32412;51.478;5.694;2024-03-23T12:43:23;3.50;;;0.95;;
46675;SDS011;32412;51.478;5.694;2024-03-23T12:45:48;4.93;;;1.13;;
46675;SDS011;32412;51.478;5.694;2024-03-23T12:48:15;2.95;;;0.80;;
46675;SDS011;32412;51.478;5.694;2024-03-23T12:50:41;2.15;;;1.05;;
46675;SDS011;32412;51.478;5.694;2024-03-23T12:53:06;6.25;;;2.15;;
46675;SDS011;32412;51.478;5.694;2024-03-23T12:55:34;3.28;;;0.90;;
46675;SDS011;32412;51.478;5.694;2024-03-23T12:58:00;4.60;;;1.38;;
46675;SDS011;32412;51.478;5.694;2024-03-23T13:00:26;5.40;;;1.95;;
46675;SDS011;32412;51.478;5.694;2024-03-23T13:02:51;7.05;;;1.90;;
46675;SDS011;32412;51.478;5.694;2024-03-23T13:05:17;10.27;;;1.38;;
46675;SDS011;32412;51.478;5.694;2024-03-23T13:07:43;6.40;;;1.33;;
46675;SDS011;32412;51.478;5.694;2024-03-23T13:10:08;3.25;;;0.80;;
46675;SDS011;32412;51.478;5.694;2024-03-23T13:12:34;2.85;;;0.77;;
46675;SDS011;32412;51.478;5.694;2024-03-23T13:15:02;2.38;;;0.63;;
46675;SDS011;32412;51.478;5.694;2024-03-23T13:17:29;1.38;;;0.35;;
46675;SDS011;32412;51.478;5.694;2024-03-23T13:19:55;4.57;;;0.70;;
46675;SDS011;32412;51.478;5.694;2024-03-23T13:22:21;3.35;;;0.50;;
46675;SDS011;32412;51.478;5.694;2024-03-23T13:27:31;4.32;;;0.65;;
46675;SDS011;32412;51.478;5.694;2024-03-23T13:29:57;3.67;;;0.70;;
46675;SDS011;32412;51.478;5.694;2024-03-23T13:32:23;3.40;;;0.52;;
46675;SDS011;32412;51.478;5.694;2024-03-23T13:34:48;3.92;;;0.77;;
46675;SDS011;32412;51.478;5.694;2024-03-23T13:37:17;5.68;;;0.77;;
46675;SDS011;32412;51.478;5.694;2024-03-23T13:39:43;4.40;;;0.90;;
46675;SDS011;32412;51.478;5.694;2024-03-23T13:42:08;4.03;;;0.80;;
46675;SDS011;32412;51.478;5.694;2024-03-23T13:44:34;5.07;;;0.75;;
46675;SDS011;32412;51.478;5.694;2024-03-23T13:46:59;4.25;;;0.75;;
46675;SDS011;32412;51.478;5.694;2024-03-23T13:49:29;2.88;;;0.90;;
46675;SDS011;32412;51.478;5.694;2024-03-23T13:51:56;1.55;;;0.70;;
46675;SDS011;32412;51.478;5.694;2024-03-23T13:54:23;3.28;;;0.70;;
46675;SDS011;32412;51.478;5.694;2024-03-23T13:56:53;6.32;;;0.98;;
46675;SDS011;32412;51.478;5.694;2024-03-23T13:59:20;6.20;;;0.80;;
46675;SDS011;32412;51.478;5.694;2024-03-23T14:01:48;2.90;;;0.80;;
46675;SDS011;32412;51.478;5.694;2024-03-23T14:04:13;1.23;;;0.68;;
46675;SDS011;32412;51.478;5.694;2024-03-23T14:06:41;2.20;;;0.60;;
46675;SDS011;32412;51.478;5.694;2024-03-23T14:09:10;3.03;;;0.60;;
46675;SDS011;32412;51.478;5.694;2024-03-23T14:11:36;3.92;;;0.80;;
46675;SDS011;32412;51.478;5.694;2024-03-23T14:14:02;2.75;;;0.80;;
46675;SDS011;32412;51.478;5.694;2024-03-23T14:16:32;4.32;;;1.00;;
46675;SDS011;32412;51.478;5.694;2024-03-23T14:18:58;4.95;;;0.88;;
46675;SDS011;32412;51.478;5.694;2024-03-23T14:21:24;2.70;;;0.93;;
46675;SDS011;32412;51.478;5.694;2024-03-23T14:23:50;3.50;;;0.90;;
46675;SDS011;32412;51.478;5.694;2024-03-23T14:26:15;4.43;;;0.85;;
46675;SDS011;32412;51.478;5.694;2024-03-23T14:28:41;3.10;;;0.88;;
46675;SDS011;32412;51.478;5.694;2024-03-23T14:31:07;5.53;;;0.90;;
46675;SDS011;32412;51.478;5.694;2024-03-23T14:33:38;7.40;;;1.60;;
46675;SDS011;32412;51.478;5.694;2024-03-23T14:36:06;6.53;;;1.08;;
46675;SDS011;32412;51.478;5.694;2024-03-23T14:41:56;7.68;;;1.50;;
46675;SDS011;32412;51.478;5.694;2024-03-23T14:54:16;5.15;;;1.33;;
46675;SDS011;32412;51.478;5.694;2024-03-23T15:00:03;8.65;;;1.00;;
46675;SDS011;32412;51.478;5.694;2024-03-23T15:02:31;5.05;;;1.23;;
46675;SDS011;32412;51.478;5.694;2024-03-23T15:04:57;2.92;;;0.98;;
46675;SDS011;32412;51.478;5.694;2024-03-23T15:07:24;3.53;;;0.90;;
46675;SDS011;32412;51.478;5.694;2024-03-23T15:09:49;3.00;;;1.33;;
46675;SDS011;32412;51.478;5.694;2024-03-23T15:12:15;5.75;;;1.33;;
46675;SDS011;32412;51.478;5.694;2024-03-23T15:14:41;3.90;;;1.10;;
46675;SDS011;32412;51.478;5.694;2024-03-23T15:17:06;6.20;;;1.42;;
46675;SDS011;32412;51.478;5.694;2024-03-23T15:19:34;4.50;;;1.10;;
46675;SDS011;32412;51.478;5.694;2024-03-23T15:21:59;4.20;;;1.30;;
46675;SDS011;32412;51.478;5.694;2024-03-23T15:24:25;4.18;;;0.90;;
46675;SDS011;32412;51.478;5.694;2024-03-23T15:26:51;5.60;;;1.17;;
46675;SDS011;32412;51.478;5.694;2024-03-23T15:29:17;3.05;;;0.90;;
46675;SDS011;32412;51.478;5.694;2024-03-23T15:31:43;4.15;;;0.70;;
46675;SDS011;32412;51.478;5.694;2024-03-23T15:34:10;1.63;;;0.80;;
46675;SDS011;32412;51.478;5.694;2024-03-23T15:36:39;5.13;;;1.10;;
46675;SDS011;32412;51.478;5.694;2024-03-23T15:41:50;8.93;;;0.77;;
46675;SDS011;32412;51.478;5.694;2024-03-23T15:44:15;6.47;;;0.88;;
46675;SDS011;32412;51.478;5.694;2024-03-23T15:46:41;3.55;;;0.77;;
46675;SDS011;32412;51.478;5.694;2024-03-23T15:49:07;5.97;;;0.95;;
46675;SDS011;32412;51.478;5.694;2024-03-23T15:51:32;3.25;;;0.60;;
46675;SDS011;32412;51.478;5.694;2024-03-23T15:53:59;4.25;;;0.80;;
46675;SDS011;32412;51.478;5.694;2024-03-23T15:56:25;3.15;;;0.82;;
46675;SDS011;32412;51.478;5.694;2024-03-23T15:58:52;2.83;;;1.00;;
46675;SDS011;32412;51.478;5.694;2024-03-23T16:01:17;1.48;;;0.50;;
46675;SDS011;32412;51.478;5.694;2024-03-23T16:03:43;1.05;;;0.45;;
46675;SDS011;32412;51.478;5.694;2024-03-23T16:06:09;4.00;;;0.47;;
46675;SDS011;32412;51.478;5.694;2024-03-23T16:08:34;1.77;;;0.55;;
46675;SDS011;32412;51.478;5.694;2024-03-23T16:11:00;2.88;;;0.60;;
46675;SDS011;32412;51.478;5.694;2024-03-23T16:13:28;3.08;;;0.90;;
46675;SDS011;32412;51.478;5.694;2024-03-23T16:15:54;4.15;;;0.70;;